createdAt,value
2022-08-12T00:01:00.238Z,18.70
2022-08-12T00:06:28.560Z,18.80
2022-08-12T00:11:54.365Z,18.60
2022-08-12T00:17:23.158Z,18.70
2022-08-12T00:22:55.248Z,18.50
2022-08-12T00:28:18.144Z,18.50
2022-08-12T00:33:52.234Z,18.30
2022-08-12T00:39:15.470Z,18.30
2022-08-12T00:44:28.068Z,18.30
2022-08-12T00:49:41.122Z,18.30
2022-08-12T00:55:02.488Z,18.10
2022-08-12T01:00:15.023Z,17.90
2022-08-12T01:05:46.038Z,18.10
2022-08-12T01:11:14.184Z,18.10
2022-08-12T01:16:23.345Z,17.90
2022-08-12T01:21:52.535Z,17.80
2022-08-12T01:27:07.402Z,17.70
2022-08-12T01:32:16.296Z,17.90
2022-08-12T01:37:27.575Z,17.90
2022-08-12T01:42:38.683Z,17.90
2022-08-12T01:48:05.289Z,17.70
2022-08-12T01:53:17.223Z,17.60
2022-08-12T01:58:58.085Z,17.60
2022-08-12T02:04:46.445Z,17.80
2022-08-12T02:10:49.957Z,17.50
2022-08-12T02:15:38.019Z,17.60
2022-08-12T02:21:06.590Z,17.40
2022-08-12T02:26:16.473Z,17.50
2022-08-12T02:31:25.822Z,17.30
2022-08-12T02:36:36.177Z,17.40
2022-08-12T02:41:47.467Z,17.40
2022-08-12T02:46:58.435Z,17.40
2022-08-12T02:52:06.619Z,17.40
2022-08-12T02:57:14.647Z,17.50
2022-08-12T03:02:24.682Z,17.40
2022-08-12T03:07:56.440Z,17.70
2022-08-12T03:12:51.778Z,17.40
2022-08-12T03:18:26.392Z,17.40
2022-08-12T03:23:29.985Z,17.40
2022-08-12T03:28:53.436Z,17.50
2022-08-12T03:34:09.879Z,17.50
2022-08-12T03:39:20.412Z,17.60
2022-08-12T03:44:59.579Z,17.50
2022-08-12T03:50:25.964Z,17.50
2022-08-12T03:55:50.768Z,17.50
2022-08-12T04:00:59.524Z,17.60
2022-08-12T04:06:11.652Z,17.50
2022-08-12T04:11:45.644Z,17.50
2022-08-12T04:16:50.050Z,17.40
2022-08-12T04:22:03.595Z,17.30
2022-08-12T04:27:13.182Z,17.30
2022-08-12T04:32:21.111Z,17.50
2022-08-12T04:37:30.811Z,17.60
2022-08-12T04:42:39.813Z,17.50
2022-08-12T04:47:50.140Z,17.50
2022-08-12T04:52:59.796Z,17.30
2022-08-12T04:58:12.651Z,17.40
2022-08-12T05:03:19.809Z,17.40
2022-08-12T05:08:27.357Z,17.60
2022-08-12T05:13:44.222Z,17.70
2022-08-12T05:18:51.864Z,17.60
2022-08-12T05:23:58.584Z,17.40
2022-08-12T05:29:10.472Z,17.20
2022-08-12T05:34:15.008Z,17.30
2022-08-12T05:39:23.343Z,17.40
2022-08-12T05:44:30.542Z,17.70
2022-08-12T05:49:39.744Z,17.70
2022-08-12T05:54:57.508Z,17.90
2022-08-12T05:59:57.289Z,18.20
2022-08-12T06:05:04.523Z,18.20
2022-08-12T06:10:14.691Z,18.10
2022-08-12T06:15:25.462Z,18.50
2022-08-12T06:20:33.752Z,18.30
2022-08-12T06:25:47.363Z,18.20
2022-08-12T06:31:24.300Z,18.10
2022-08-12T06:36:11.959Z,18.10
2022-08-12T06:41:38.242Z,18.20
2022-08-12T06:46:46.409Z,18.20
2022-08-12T06:51:57.759Z,18.20
2022-08-12T06:58:06.769Z,18.00
2022-08-12T07:02:21.594Z,18.10
2022-08-12T07:07:29.337Z,18.40
2022-08-12T07:12:39.538Z,18.70
2022-08-12T07:17:52.319Z,18.60
2022-08-12T07:23:09.664Z,18.60
2022-08-12T07:28:44.811Z,18.90
2022-08-12T07:33:48.812Z,19.30
2022-08-12T07:39:00.862Z,19.30
2022-08-12T07:44:10.644Z,19.40
2022-08-12T07:49:22.308Z,19.60
2022-08-12T07:54:29.739Z,19.60
2022-08-12T07:59:36.462Z,20.00
2022-08-12T08:04:55.906Z,19.60
2022-08-12T08:10:08.835Z,19.60
2022-08-12T08:15:16.195Z,19.80
2022-08-12T08:20:30.461Z,20.10
2022-08-12T08:25:40.641Z,20.20
2022-08-12T08:30:52.016Z,20.60
2022-08-12T08:36:02.074Z,21.20
2022-08-12T08:42:16.364Z,21.70
2022-08-12T08:46:38.393Z,21.60
2022-08-12T08:51:49.451Z,21.40
2022-08-12T08:56:56.212Z,22.00
2022-08-12T09:02:03.064Z,23.00
2022-08-12T09:12:27.667Z,23.60
2022-08-12T09:17:42.803Z,23.30
2022-08-12T09:22:51.582Z,23.40
2022-08-12T09:28:05.939Z,22.90
2022-08-12T09:34:24.630Z,23.30
2022-08-12T09:38:30.127Z,24.10
2022-08-12T09:44:01.752Z,23.60
2022-08-12T09:49:16.316Z,22.10
2022-08-12T09:54:33.626Z,23.90
2022-08-12T10:00:17.601Z,24.40
2022-08-12T10:04:52.328Z,24.10
2022-08-12T10:10:02.472Z,24.30
2022-08-12T10:15:15.385Z,23.90
2022-08-12T10:20:27.899Z,24.40
2022-08-12T10:26:35.248Z,23.90
2022-08-12T10:31:05.563Z,24.10
2022-08-12T10:36:18.067Z,23.40
2022-08-12T10:41:57.892Z,24.50
2022-08-12T10:46:59.140Z,25.10
2022-08-12T10:52:34.007Z,24.60
2022-08-12T10:58:13.018Z,23.50
2022-08-12T11:04:19.818Z,22.30
2022-08-12T11:08:35.125Z,22.90
2022-08-12T11:13:00.669Z,21.90
2022-08-12T11:18:11.842Z,21.70
2022-08-12T11:23:36.304Z,21.70
2022-08-12T11:28:34.709Z,21.40
2022-08-12T11:34:04.286Z,20.40
2022-08-12T11:38:50.438Z,20.40
2022-08-12T11:43:58.511Z,20.40
2022-08-12T11:49:08.762Z,21.60
2022-08-12T11:54:17.115Z,22.60
2022-08-12T12:04:34.243Z,23.80
2022-08-12T12:09:52.259Z,24.10
2022-08-12T12:14:55.871Z,24.20
2022-08-12T12:20:04.706Z,24.40
2022-08-12T12:25:14.612Z,23.90
2022-08-12T12:30:29.756Z,24.60
2022-08-12T12:36:18.385Z,24.30
2022-08-12T12:40:50.734Z,23.10
2022-08-12T12:46:01.283Z,23.30
2022-08-12T12:51:49.276Z,22.40
2022-08-12T12:56:34.584Z,21.90
2022-08-12T13:01:41.698Z,21.60
2022-08-12T13:06:54.669Z,21.30
2022-08-12T13:12:01.591Z,21.80
2022-08-12T13:17:14.714Z,21.60
2022-08-12T13:22:23.973Z,22.30
2022-08-12T13:27:39.644Z,21.20
2022-08-12T13:32:56.813Z,19.50
2022-08-12T13:38:06.578Z,17.20
2022-08-12T13:43:16.533Z,15.90
2022-08-12T13:48:28.978Z,16.10
2022-08-12T13:53:40.258Z,16.20
2022-08-12T13:58:44.540Z,16.10
2022-08-12T14:03:54.841Z,15.80
2022-08-12T14:09:15.370Z,16.30
2022-08-12T14:14:12.876Z,16.00
2022-08-12T14:19:24.859Z,16.30
2022-08-12T14:24:31.398Z,15.90
2022-08-12T14:30:05.025Z,16.10
2022-08-12T14:34:52.098Z,16.00
2022-08-12T14:39:59.604Z,15.80
2022-08-12T14:45:09.509Z,15.60
2022-08-12T14:50:41.180Z,15.30
2022-08-12T15:01:02.042Z,14.90
2022-08-12T15:06:44.580Z,14.60
2022-08-12T15:11:23.956Z,14.80
2022-08-12T15:16:34.626Z,14.90
2022-08-12T15:22:37.027Z,15.00
2022-08-12T15:26:52.587Z,14.90
2022-08-12T15:32:10.633Z,14.90
2022-08-12T15:37:13.947Z,15.10
2022-08-12T15:42:25.267Z,14.90
2022-08-12T15:47:48.281Z,15.00
2022-08-12T15:52:42.502Z,15.20
2022-08-12T15:57:55.386Z,15.00
2022-08-12T16:03:28.234Z,15.30
2022-08-12T16:08:39.107Z,15.30
2022-08-12T16:13:49.478Z,15.30
2022-08-12T16:19:01.938Z,15.20
2022-08-12T16:24:08.729Z,15.30
2022-08-12T16:29:20.589Z,15.50
2022-08-12T16:34:54.698Z,15.30
2022-08-12T16:40:01.159Z,15.20
2022-08-12T16:44:49.854Z,15.00
2022-08-12T16:49:59.455Z,14.90
2022-08-12T16:55:13.171Z,14.70
2022-08-12T17:00:19.737Z,14.60
2022-08-12T17:05:31.668Z,14.60
2022-08-12T17:10:40.801Z,14.60
2022-08-12T17:16:04.972Z,14.70
2022-08-12T17:20:59.518Z,14.50
2022-08-12T17:26:08.663Z,14.50
2022-08-12T17:31:59.297Z,14.60
2022-08-12T17:36:28.171Z,14.60
2022-08-12T17:41:57.000Z,14.60
2022-08-12T17:46:53.691Z,14.70
2022-08-12T17:52:03.261Z,14.70
2022-08-12T17:57:16.622Z,14.90
2022-08-12T18:02:30.760Z,14.80
2022-08-12T18:07:41.331Z,14.70
2022-08-12T18:12:54.377Z,14.50
2022-08-12T18:18:16.811Z,14.60
2022-08-12T18:23:23.757Z,14.60
2022-08-12T18:28:35.441Z,14.40
2022-08-12T18:33:47.543Z,14.40
2022-08-12T18:38:59.812Z,14.60
2022-08-12T18:44:19.433Z,14.50
2022-08-12T18:49:39.776Z,14.30
2022-08-12T18:54:54.841Z,14.10
2022-08-12T19:00:06.754Z,14.10
2022-08-12T19:05:18.305Z,14.10
2022-08-12T19:10:28.465Z,13.90
2022-08-12T19:15:43.100Z,14.00
2022-08-12T19:20:51.323Z,14.10
2022-08-12T19:26:04.429Z,13.90
2022-08-12T19:31:57.616Z,13.80
2022-08-12T19:37:03.001Z,13.60
2022-08-12T19:42:14.342Z,13.80
2022-08-12T19:47:28.970Z,13.80
2022-08-12T19:52:40.861Z,13.80
2022-08-12T19:58:02.397Z,13.80
2022-08-12T20:03:03.060Z,13.60
2022-08-12T20:08:12.521Z,13.80
2022-08-12T20:13:27.189Z,13.60
2022-08-12T20:18:53.613Z,13.60
2022-08-12T20:24:00.250Z,13.50
2022-08-12T20:29:01.609Z,13.80
2022-08-12T20:34:14.462Z,13.60
2022-08-12T20:39:53.526Z,13.50
2022-08-12T20:44:42.699Z,13.40
2022-08-12T20:49:55.578Z,13.30
2022-08-12T20:55:15.499Z,13.50
2022-08-12T21:00:22.772Z,13.40
2022-08-12T21:06:12.032Z,13.50
2022-08-12T21:11:02.417Z,13.50
2022-08-12T21:16:12.711Z,13.30
2022-08-12T21:21:24.198Z,13.40
2022-08-12T21:26:33.115Z,13.30
2022-08-12T21:32:39.665Z,13.30
2022-08-12T21:37:01.776Z,13.50
2022-08-12T21:42:14.808Z,13.20
2022-08-12T21:47:28.806Z,13.10
2022-08-12T21:52:40.873Z,13.00
2022-08-12T21:58:02.673Z,13.00
2022-08-12T22:04:04.095Z,13.10
2022-08-12T22:08:37.462Z,13.20
2022-08-12T22:14:07.569Z,13.10
2022-08-12T22:19:00.388Z,13.00
2022-08-12T22:24:25.627Z,13.20
2022-08-12T22:29:40.836Z,13.10
2022-08-12T22:34:52.626Z,13.00
2022-08-12T22:40:01.977Z,13.00
2022-08-12T22:45:31.312Z,13.00
2022-08-12T22:50:41.492Z,13.10
2022-08-12T22:56:00.743Z,13.00
2022-08-12T23:00:59.332Z,12.90
2022-08-12T23:06:11.530Z,13.00
2022-08-12T23:11:23.282Z,13.00
2022-08-12T23:16:38.919Z,13.00
2022-08-12T23:22:06.107Z,12.90
2022-08-12T23:27:50.229Z,12.50
2022-08-12T23:32:40.305Z,12.50
2022-08-12T23:37:53.967Z,12.70
2022-08-12T23:43:03.843Z,13.10
2022-08-12T23:48:22.994Z,12.70
2022-08-12T23:53:32.430Z,12.50
2022-08-12T23:58:43.781Z,12.70
